Time;durP1;ratioP1;P1;durP2;ratioP2;P2;SDS_P1;SDS_P2;PMS_P1;PMS_P2;Temp;Humidity;BMP_temperature;BMP_pressure;BME280_temperature;BME280_humidity;BME280_pressure;Samples;Min_cycle;Max_cycle;Signal;HPM_P1;HPM_P2
2021/12/10 00:02:01;;;;;;;;;;;4.80;99.90;;;;;;5022463;28;19931;-90
2021/12/10 00:08:07;;;;;;;;;;;;;;;;;;;;;
2021/12/10 00:10:55;;;;;;;;;;;4.90;99.90;;;;;;5071746;28;19975;-90
2021/12/10 00:13:30;;;;;;;;;;;4.80;99.90;;;;;;5027522;28;19925;-90
2021/12/10 00:16:04;;;;;;;;;;;4.80;99.90;;;;;;5052554;28;19924;-90
2021/12/10 00:18:40;;;;;;;;;;;4.80;99.90;;;;;;5022536;28;19931;-90
2021/12/10 00:21:14;;;;;;;;;;;4.90;99.90;;;;;;5038802;28;19925;-91
2021/12/10 00:23:52;;;;;;;;;;;4.90;99.90;;;;;;5022007;28;19929;-91
2021/12/10 00:30:02;;;;;;;;;;;4.80;99.90;;;;;;5045477;28;19932;-90
2021/12/10 00:32:39;;;;;;;;;;;4.80;99.90;;;;;;5038263;28;19928;-90
2021/12/10 00:35:32;;;;;;;;;;;4.80;99.90;;;;;;5023075;28;19968;-90
2021/12/10 00:38:17;;;;;;;;;;;;;;;;;;;;;
2021/12/10 00:41:17;;;;;;;;;;;4.90;99.90;;;;;;5059840;28;19947;-91
2021/12/10 00:46:56;;;;;;;;;;;;;;;;;;;;;
2021/12/10 00:49:40;;;;;;;;;;;4.90;99.90;;;;;;5044666;28;19970;-90
2021/12/10 00:52:09;;;;;;;;;;;4.80;99.90;;;;;;5024936;28;19928;-90
2021/12/10 00:54:48;;;;;;;;;;;4.90;99.90;;;;;;5026308;28;19924;-92
2021/12/10 00:57:31;;;;;;;;;;;4.90;99.90;;;;;;5026399;28;19924;-91
2021/12/10 00:59:57;;;;;;;;;;;4.90;99.90;;;;;;5025976;28;19931;-90
2021/12/10 01:02:48;;;;;;;;;;;4.80;99.90;;;;;;5019559;28;19925;-89
2021/12/10 01:05:29;;;;;;;;;;;;;;;;;;;;;
2021/12/10 01:08:22;;;;;;;;;;;4.80;99.90;;;;;;5023048;28;19931;-91
2021/12/10 01:10:59;;;;;;;;;;;4.80;99.90;;;;;;5024969;28;19931;-91
2021/12/10 01:25:50;;;;;;;;;;;;;;;;;;;;;
2021/12/10 01:28:29;;;;;;;;;;;4.60;99.90;;;;;;5025485;28;20395;-91
2021/12/10 01:31:13;;;;;;;;;;;;;;;;;;;;;
2021/12/10 01:33:39;;;;;;;;;;;4.50;99.90;;;;;;5021887;28;19932;-90
2021/12/10 01:42:38;;;;;;;;;;;4.30;99.90;;;;;;5008698;28;19924;-90
2021/12/10 01:45:19;;;;;;;;;;;4.20;99.90;;;;;;5023075;28;20379;-91
2021/12/10 01:47:45;;;;;;;;;;;4.10;99.90;;;;;;5004478;28;20373;-90
2021/12/10 01:51:00;;;;;;;;;;;4.10;99.90;;;;;;5005019;28;19925;-91
2021/12/10 01:53:51;;;;;;;;;;;4.00;99.90;;;;;;5037256;28;20444;-90
2021/12/10 01:56:27;;;;;;;;;;;4.10;99.90;;;;;;5023827;28;20439;-90
2021/12/10 01:59:01;;;;;;;;;;;4.10;99.90;;;;;;5004365;28;19955;-90
2021/12/10 02:01:57;;;;;;;;;;;;;;;;;;;;;
2021/12/10 02:04:30;;;;;;;;;;;4.20;99.90;;;;;;5032007;28;20351;-91
2021/12/10 02:07:03;;;;;;;;;;;4.30;99.90;;;;;;5004239;28;19925;-90
2021/12/10 02:09:34;;;;;;;;;;;4.20;99.90;;;;;;5021567;28;20415;-90
2021/12/10 02:12:28;;;;;;;;;;;4.30;99.90;;;;;;5004055;28;19967;-91
2021/12/10 02:15:07;;;;;;;;;;;4.40;99.90;;;;;;5036491;28;19951;-90
2021/12/10 02:18:02;;;;;;;;;;;4.30;99.90;;;;;;5021491;28;20276;-89
2021/12/10 02:20:29;;;;;;;;;;;4.40;99.90;;;;;;5022180;28;19925;-90
2021/12/10 02:23:39;;;;;;;;;;;4.50;99.90;;;;;;5038067;28;19979;-90
2021/12/10 02:26:07;;;;;;;;;;;4.40;99.90;;;;;;5019292;28;19931;-90
2021/12/10 02:28:40;;;;;;;;;;;4.50;99.90;;;;;;5020387;28;20328;-90
2021/12/10 02:31:39;;;;;;;;;;;;;;;;;;;;;
2021/12/10 02:34:05;;;;;;;;;;;4.50;99.90;;;;;;5035689;28;19928;-91
2021/12/10 02:36:43;;;;;;;;;;;;;;;;;;;;;
2021/12/10 02:39:25;;;;;;;;;;;4.60;99.90;;;;;;5021245;28;20377;-90
2021/12/10 02:45:20;;;;;;;;;;;;;;;;;;;;;
2021/12/10 02:47:58;;;;;;;;;;;;;;;;;;;;;
2021/12/10 02:50:39;;;;;;;;;;;4.60;99.90;;;;;;5021671;28;19925;-91
2021/12/10 02:53:08;;;;;;;;;;;4.50;99.90;;;;;;5003932;28;19975;-90
2021/12/10 02:55:53;;;;;;;;;;;4.50;99.90;;;;;;5003464;28;19929;-90
2021/12/10 02:58:39;;;;;;;;;;;4.50;99.90;;;;;;5003830;28;19929;-90
2021/12/10 03:04:23;;;;;;;;;;;4.60;99.90;;;;;;5023987;28;20011;-90
2021/12/10 03:07:18;;;;;;;;;;;4.60;99.90;;;;;;5042389;28;19932;-90
2021/12/10 03:10:00;;;;;;;;;;;;;;;;;;;;;
2021/12/10 03:12:31;;;;;;;;;;;4.60;99.90;;;;;;5040392;28;19924;-90
2021/12/10 03:15:07;;;;;;;;;;;4.50;99.90;;;;;;5038955;28;19924;-90
2021/12/10 03:17:44;;;;;;;;;;;4.60;99.90;;;;;;5038865;28;19932;-90
2021/12/10 03:23:11;;;;;;;;;;;;;;;;;;;;;
2021/12/10 03:25:49;;;;;;;;;;;;;;;;;;;;;
2021/12/10 03:28:44;;;;;;;;;;;;;;;;;;;;;
2021/12/10 03:31:31;;;;;;;;;;;4.60;99.90;;;;;;5055109;28;19932;-90
2021/12/10 03:34:02;;;;;;;;;;;4.60;99.90;;;;;;5041727;28;19967;-90
2021/12/10 03:36:28;;;;;;;;;;;4.50;99.90;;;;;;5022716;28;19924;-90
2021/12/10 03:39:18;;;;;;;;;;;4.50;99.90;;;;;;5023078;28;19974;-90
2021/12/10 03:45:08;;;;;;;;;;;;;;;;;;;;;
2021/12/10 03:48:06;;;;;;;;;;;;;;;;;;;;;
2021/12/10 03:50:31;;;;;;;;;;;4.50;99.90;;;;;;5040488;28;19928;-90
2021/12/10 03:53:07;;;;;;;;;;;4.50;99.90;;;;;;5022246;28;20322;-90
2021/12/10 03:55:38;;;;;;;;;;;4.50;99.90;;;;;;5023229;28;19931;-90
2021/12/10 03:58:17;;;;;;;;;;;4.50;99.90;;;;;;5055248;28;20275;-90
2021/12/10 04:00:52;;;;;;;;;;;4.50;99.90;;;;;;5023423;28;19924;-89
2021/12/10 04:03:18;;;;;;;;;;;4.50;99.90;;;;;;5021138;28;19925;-90
2021/12/10 04:05:50;;;;;;;;;;;4.50;99.90;;;;;;5038069;28;19930;-89
2021/12/10 04:11:16;;;;;;;;;;;4.40;99.90;;;;;;5036833;28;19932;-90
2021/12/10 04:13:52;;;;;;;;;;;4.40;99.90;;;;;;5026264;28;19975;-89
2021/12/10 04:16:29;;;;;;;;;;;4.30;99.90;;;;;;5026812;28;19924;-89
2021/12/10 04:18:55;;;;;;;;;;;4.30;99.90;;;;;;5042978;28;19935;-90
2021/12/10 04:21:30;;;;;;;;;;;4.30;99.90;;;;;;5025553;28;20311;-90
2021/12/10 04:24:07;;;;;;;;;;;4.30;99.90;;;;;;5025789;28;19970;-90
2021/12/10 04:26:39;;;;;;;;;;;4.20;99.90;;;;;;5026419;28;19931;-90
2021/12/10 04:32:13;;;;;;;;;;;4.10;99.90;;;;;;5044774;28;19931;-90
2021/12/10 04:34:43;;;;;;;;;;;4.00;99.90;;;;;;5027159;28;19925;-91
2021/12/10 04:37:15;;;;;;;;;;;4.00;99.90;;;;;;5026077;28;19947;-90
2021/12/10 04:39:49;;;;;;;;;;;3.90;99.90;;;;;;5041706;28;19928;-90
2021/12/10 04:42:41;;;;;;;;;;;3.80;99.90;;;;;;5041625;28;19973;-90
2021/12/10 04:45:18;;;;;;;;;;;;;;;;;;;;;
2021/12/10 04:47:52;;;;;;;;;;;3.70;99.90;;;;;;5042933;28;19935;-90
2021/12/10 04:50:38;;;;;;;;;;;3.70;99.90;;;;;;5041034;28;20361;-90
2021/12/10 04:53:14;;;;;;;;;;;3.60;99.90;;;;;;5033875;28;20363;-89
2021/12/10 04:55:49;;;;;;;;;;;3.60;99.90;;;;;;5026499;28;19971;-89
2021/12/10 04:58:20;;;;;;;;;;;3.60;99.90;;;;;;5041080;28;19925;-90
2021/12/10 05:00:54;;;;;;;;;;;3.50;99.90;;;;;;5042016;28;19971;-90
2021/12/10 05:03:46;;;;;;;;;;;3.50;99.90;;;;;;5024136;28;19974;-89
2021/12/10 05:06:17;;;;;;;;;;;3.50;99.90;;;;;;5027242;28;19974;-90
2021/12/10 05:08:53;;;;;;;;;;;;;;;;;;;;;
2021/12/10 05:11:43;;;;;;;;;;;3.40;99.90;;;;;;5041944;28;19925;-89
2021/12/10 05:14:16;;;;;;;;;;;3.30;99.90;;;;;;5043452;28;19925;-89
2021/12/10 05:16:57;;;;;;;;;;;;;;;;;;;;;
2021/12/10 05:19:26;;;;;;;;;;;3.30;99.90;;;;;;5042320;28;19939;-90
2021/12/10 05:22:00;;;;;;;;;;;3.30;99.90;;;;;;5025547;28;20395;-90
2021/12/10 05:24:33;;;;;;;;;;;3.30;99.90;;;;;;5040293;28;20019;-89
2021/12/10 05:27:18;;;;;;;;;;;;;;;;;;;;;
2021/12/10 05:29:49;;;;;;;;;;;3.30;99.90;;;;;;5042047;28;20360;-89
2021/12/10 05:38:17;;;;;;;;;;;3.30;99.90;;;;;;5043612;28;19925;-91
2021/12/10 05:40:53;;;;;;;;;;;3.30;99.90;;;;;;5025460;28;19975;-90
2021/12/10 05:43:42;;;;;;;;;;;3.30;99.90;;;;;;5024955;28;19932;-88
2021/12/10 05:46:38;;;;;;;;;;;;;;;;;;;;;
2021/12/10 05:49:24;;;;;;;;;;;3.20;99.90;;;;;;5054542;28;19933;-92
2021/12/10 05:52:11;;;;;;;;;;;;;;;;;;;;;
2021/12/10 05:54:45;;;;;;;;;;;3.20;99.90;;;;;;5042922;28;19991;-89
2021/12/10 05:57:17;;;;;;;;;;;3.20;99.90;;;;;;5041498;28;19925;-90
2021/12/10 05:59:46;;;;;;;;;;;3.10;99.90;;;;;;5023727;28;19979;-89
2021/12/10 06:02:14;;;;;;;;;;;3.20;99.90;;;;;;5023674;28;19966;-88
2021/12/10 06:04:42;;;;;;;;;;;3.10;99.90;;;;;;5056709;28;20357;-89
2021/12/10 06:07:08;;;;;;;;;;;3.10;99.90;;;;;;5023448;28;19925;-87
2021/12/10 06:09:34;;;;;;;;;;;3.10;99.90;;;;;;5023283;28;20330;-87
2021/12/10 06:12:02;;;;;;;;;;;3.00;99.90;;;;;;5023671;28;19925;-87
2021/12/10 06:14:28;;;;;;;;;;;3.10;99.90;;;;;;5039789;28;19924;-88
2021/12/10 06:16:56;;;;;;;;;;;3.10;99.90;;;;;;5023515;28;20162;-88
2021/12/10 06:19:22;;;;;;;;;;;3.10;99.90;;;;;;5039951;28;20347;-88
2021/12/10 06:21:48;;;;;;;;;;;3.00;99.90;;;;;;5023681;28;19981;-87
2021/12/10 06:24:21;;;;;;;;;;;3.00;99.90;;;;;;5039940;28;19931;-87
2021/12/10 06:26:56;;;;;;;;;;;3.00;99.90;;;;;;5055702;28;20042;-87
2021/12/10 06:29:24;;;;;;;;;;;3.00;99.90;;;;;;5039746;28;20028;-87
2021/12/10 06:31:54;;;;;;;;;;;2.90;99.90;;;;;;5023393;28;19925;-87
2021/12/10 06:34:22;;;;;;;;;;;2.90;99.90;;;;;;5039175;28;20451;-88
2021/12/10 06:36:48;;;;;;;;;;;2.90;99.90;;;;;;5022796;28;19925;-87
2021/12/10 06:39:19;;;;;;;;;;;2.80;99.90;;;;;;5022429;28;19975;-87
2021/12/10 06:41:47;;;;;;;;;;;2.80;99.90;;;;;;5039290;28;20201;-88
2021/12/10 06:44:15;;;;;;;;;;;2.80;99.90;;;;;;5039183;28;19925;-87
2021/12/10 06:46:48;;;;;;;;;;;2.70;99.90;;;;;;5039086;28;20368;-87
2021/12/10 06:49:16;;;;;;;;;;;2.80;99.90;;;;;;5039382;28;19977;-87
2021/12/10 06:51:42;;;;;;;;;;;2.70;99.90;;;;;;5022500;28;20395;-88
2021/12/10 06:54:07;;;;;;;;;;;2.60;99.90;;;;;;5022704;28;19925;-87
2021/12/10 06:56:35;;;;;;;;;;;2.60;99.90;;;;;;5022618;28;20014;-88
2021/12/10 06:59:01;;;;;;;;;;;2.60;99.90;;;;;;5039248;28;19931;-87
2021/12/10 07:01:28;;;;;;;;;;;2.60;99.90;;;;;;5022504;28;19924;-87
2021/12/10 07:03:54;;;;;;;;;;;2.50;99.90;;;;;;5022472;28;19925;-87
2021/12/10 07:06:23;;;;;;;;;;;2.50;99.90;;;;;;5039303;28;19925;-87
2021/12/10 07:08:51;;;;;;;;;;;2.50;99.90;;;;;;5022307;28;19936;-87
2021/12/10 07:11:17;;;;;;;;;;;2.40;99.90;;;;;;5038421;28;20007;-87
2021/12/10 07:13:44;;;;;;;;;;;2.40;99.90;;;;;;5037852;28;19924;-87
2021/12/10 07:16:18;;;;;;;;;;;2.40;99.90;;;;;;5022077;28;19924;-88
2021/12/10 07:18:44;;;;;;;;;;;2.40;99.90;;;;;;5022163;28;19974;-87
2021/12/10 07:21:09;;;;;;;;;;;2.40;99.90;;;;;;5021955;28;19990;-87
2021/12/10 07:23:37;;;;;;;;;;;2.40;99.90;;;;;;5054131;28;19924;-87
2021/12/10 07:26:06;;;;;;;;;;;2.30;99.90;;;;;;5022472;28;19931;-87
2021/12/10 07:28:34;;;;;;;;;;;2.30;99.90;;;;;;5038512;28;20360;-87
2021/12/10 07:31:02;;;;;;;;;;;2.30;99.90;;;;;;5021941;28;19924;-87
2021/12/10 07:33:35;;;;;;;;;;;2.30;99.90;;;;;;5038238;28;19925;-87
2021/12/10 07:36:04;;;;;;;;;;;2.30;99.90;;;;;;5023393;28;20408;-88
2021/12/10 07:38:29;;;;;;;;;;;2.30;99.90;;;;;;5038197;28;20015;-87
2021/12/10 07:40:57;;;;;;;;;;;2.30;99.90;;;;;;5021429;28;19974;-87
2021/12/10 07:43:23;;;;;;;;;;;2.30;99.90;;;;;;5021937;28;19925;-87
2021/12/10 07:45:49;;;;;;;;;;;2.30;99.90;;;;;;5058223;28;20015;-88
2021/12/10 07:48:18;;;;;;;;;;;2.20;99.90;;;;;;5042198;28;19924;-87
2021/12/10 07:50:58;;;;;;;;;;;2.30;99.90;;;;;;5042322;28;19932;-88
2021/12/10 07:53:26;;;;;;;;;;;2.30;99.90;;;;;;5059091;28;19924;-87
2021/12/10 07:55:52;;;;;;;;;;;2.20;99.90;;;;;;5058456;28;19931;-87
2021/12/10 07:58:20;;;;;;;;;;;2.20;99.90;;;;;;5025999;28;19925;-87
2021/12/10 08:00:58;;;;;;;;;;;;;;;;;;;;;
2021/12/10 08:03:26;;;;;;;;;;;2.20;99.90;;;;;;5042903;28;19982;-87
2021/12/10 08:05:52;;;;;;;;;;;2.20;99.90;;;;;;5025519;28;20257;-87
2021/12/10 08:08:18;;;;;;;;;;;2.20;99.90;;;;;;5025797;28;19931;-87
2021/12/10 08:10:47;;;;;;;;;;;2.20;99.90;;;;;;5024925;28;19932;-88
2021/12/10 08:13:15;;;;;;;;;;;2.30;99.90;;;;;;5025615;28;20331;-87
2021/12/10 08:15:48;;;;;;;;;;;2.30;99.90;;;;;;5025160;28;20015;-87
2021/12/10 08:18:16;;;;;;;;;;;2.20;99.90;;;;;;5026614;28;20288;-87
2021/12/10 08:20:42;;;;;;;;;;;2.30;99.90;;;;;;5041720;28;19924;-87
2021/12/10 08:23:10;;;;;;;;;;;2.30;99.90;;;;;;5025621;28;20007;-87
2021/12/10 08:25:39;;;;;;;;;;;2.30;99.90;;;;;;5041704;28;19974;-88
2021/12/10 08:28:12;;;;;;;;;;;2.30;99.90;;;;;;5041823;28;19963;-87
2021/12/10 08:30:45;;;;;;;;;;;2.30;99.90;;;;;;5042644;28;20276;-87
2021/12/10 08:33:13;;;;;;;;;;;2.30;99.90;;;;;;5025248;28;19928;-88
2021/12/10 08:35:39;;;;;;;;;;;2.30;99.90;;;;;;5025539;28;19925;-87
2021/12/10 08:38:05;;;;;;;;;;;2.30;99.90;;;;;;5041272;28;19978;-88
2021/12/10 08:40:32;;;;;;;;;;;2.30;99.90;;;;;;5041708;28;19928;-88
2021/12/10 08:43:00;;;;;;;;;;;2.30;99.90;;;;;;5024367;28;20269;-88
2021/12/10 08:45:26;;;;;;;;;;;2.20;99.90;;;;;;5025306;28;19924;-86
2021/12/10 08:47:52;;;;;;;;;;;2.40;99.90;;;;;;5024604;28;20293;-87
2021/12/10 08:50:26;;;;;;;;;;;2.30;99.90;;;;;;5041224;28;20398;-87
2021/12/10 08:52:57;;;;;;;;;;;2.30;99.90;;;;;;5024633;28;19928;-87
2021/12/10 08:55:23;;;;;;;;;;;2.30;99.90;;;;;;5041678;28;19924;-87
2021/12/10 08:57:48;;;;;;;;;;;2.40;99.90;;;;;;5023671;28;19977;-87
2021/12/10 09:00:14;;;;;;;;;;;2.40;99.90;;;;;;5057889;28;19932;-87
2021/12/10 09:02:40;;;;;;;;;;;2.40;99.90;;;;;;5022741;28;20403;-87
2021/12/10 09:05:06;;;;;;;;;;;2.50;99.90;;;;;;5004532;28;20011;-87
2021/12/10 09:07:45;;;;;;;;;;;2.50;99.90;;;;;;5021328;28;19924;-87
2021/12/10 09:10:19;;;;;;;;;;;2.50;99.90;;;;;;5005919;28;19933;-87
2021/12/10 09:12:45;;;;;;;;;;;2.50;99.90;;;;;;5020808;28;19925;-87
2021/12/10 09:15:18;;;;;;;;;;;2.60;99.90;;;;;;5020874;28;19929;-87
2021/12/10 09:17:47;;;;;;;;;;;2.60;99.90;;;;;;5005568;28;19998;-87
2021/12/10 09:20:14;;;;;;;;;;;2.60;99.90;;;;;;5021245;28;19924;-87
2021/12/10 09:22:42;;;;;;;;;;;2.70;99.90;;;;;;5020570;28;20011;-87
2021/12/10 09:25:08;;;;;;;;;;;2.60;99.90;;;;;;5020741;28;19970;-87
2021/12/10 09:27:34;;;;;;;;;;;2.70;99.90;;;;;;5004556;28;19928;-87
2021/12/10 09:30:02;;;;;;;;;;;2.70;99.90;;;;;;5020623;28;19925;-88
2021/12/10 09:32:30;;;;;;;;;;;2.70;99.90;;;;;;5004739;28;19931;-87
2021/12/10 09:35:06;;;;;;;;;;;;;;;;;;;;;
2021/12/10 09:37:32;;;;;;;;;;;2.80;99.90;;;;;;5037206;28;19924;-86
2021/12/10 09:39:58;;;;;;;;;;;2.90;99.90;;;;;;5003885;28;19980;-87
2021/12/10 09:42:25;;;;;;;;;;;2.90;99.90;;;;;;5020410;28;19936;-87
2021/12/10 09:44:56;;;;;;;;;;;2.90;99.90;;;;;;5004687;28;19925;-87
2021/12/10 09:47:22;;;;;;;;;;;2.90;99.90;;;;;;5037057;28;20287;-87
2021/12/10 09:49:49;;;;;;;;;;;3.00;99.90;;;;;;5004166;28;20024;-87
2021/12/10 09:52:17;;;;;;;;;;;3.00;99.90;;;;;;5020452;28;19932;-87
2021/12/10 09:54:45;;;;;;;;;;;3.10;99.90;;;;;;5004053;28;19932;-87
2021/12/10 09:57:19;;;;;;;;;;;3.10;99.90;;;;;;5003742;28;20380;-87
2021/12/10 09:59:47;;;;;;;;;;;3.10;99.90;;;;;;5004002;28;19974;-87
2021/12/10 10:02:15;;;;;;;;;;;3.20;99.90;;;;;;5003845;28;19925;-87
2021/12/10 10:04:46;;;;;;;;;;;3.30;99.90;;;;;;5003988;28;20280;-86
2021/12/10 10:07:13;;;;;;;;;;;3.20;99.90;;;;;;5003849;28;20365;-86
2021/12/10 10:09:42;;;;;;;;;;;3.20;99.90;;;;;;5002974;28;19970;-86
2021/12/10 10:12:11;;;;;;;;;;;3.30;99.90;;;;;;5019508;28;19929;-86
2021/12/10 10:14:38;;;;;;;;;;;3.30;99.90;;;;;;5003499;28;19932;-86
2021/12/10 10:17:04;;;;;;;;;;;3.30;99.90;;;;;;5003511;28;19929;-86
2021/12/10 10:19:34;;;;;;;;;;;3.40;99.90;;;;;;5036025;28;19972;-86
2021/12/10 10:22:03;;;;;;;;;;;3.40;99.90;;;;;;5020287;28;20297;-86
2021/12/10 10:24:29;;;;;;;;;;;3.40;99.90;;;;;;5020440;28;19970;-86
2021/12/10 10:26:59;;;;;;;;;;;3.40;99.90;;;;;;5036073;28;19925;-86
2021/12/10 10:29:26;;;;;;;;;;;3.40;99.90;;;;;;5036667;28;19925;-86
2021/12/10 10:31:54;;;;;;;;;;;3.50;99.90;;;;;;5036231;28;19924;-87
2021/12/10 10:34:20;;;;;;;;;;;3.50;99.90;;;;;;5019838;28;20287;-86
2021/12/10 10:36:48;;;;;;;;;;;3.60;99.90;;;;;;5003838;28;20012;-86
2021/12/10 10:39:17;;;;;;;;;;;3.60;99.90;;;;;;5019472;28;19932;-86
2021/12/10 10:41:47;;;;;;;;;;;3.60;99.90;;;;;;5020539;28;19932;-86
2021/12/10 10:44:15;;;;;;;;;;;3.60;99.90;;;;;;5019166;28;20430;-86
2021/12/10 10:46:43;;;;;;;;;;;3.70;99.90;;;;;;5019950;28;19932;-86
2021/12/10 10:49:11;;;;;;;;;;;3.70;99.90;;;;;;5019268;28;20404;-86
2021/12/10 10:51:39;;;;;;;;;;;3.70;99.90;;;;;;5019970;28;19978;-86
2021/12/10 10:54:06;;;;;;;;;;;3.80;99.90;;;;;;5018899;28;19925;-86
2021/12/10 10:56:35;;;;;;;;;;;3.80;99.90;;;;;;5003211;28;19924;-86
2021/12/10 10:59:15;;;;;;;;;;;3.80;99.90;;;;;;5019111;28;20404;-86
2021/12/10 11:01:44;;;;;;;;;;;3.80;99.90;;;;;;5019377;28;20292;-86
2021/12/10 11:04:15;;;;;;;;;;;3.90;99.90;;;;;;5018684;28;19971;-85
2021/12/10 11:06:45;;;;;;;;;;;3.90;99.90;;;;;;5019997;28;20285;-87
2021/12/10 11:09:14;;;;;;;;;;;3.90;99.90;;;;;;5002611;28;20007;-88
2021/12/10 11:11:45;;;;;;;;;;;4.00;99.90;;;;;;5003136;28;20288;-89
2021/12/10 11:14:15;;;;;;;;;;;4.00;99.90;;;;;;5002154;28;19925;-88
2021/12/10 11:16:41;;;;;;;;;;;4.10;99.90;;;;;;5019471;28;19979;-89
2021/12/10 11:19:14;;;;;;;;;;;4.10;99.90;;;;;;5019028;28;19933;-88
2021/12/10 11:21:43;;;;;;;;;;;4.10;99.90;;;;;;5018601;28;19932;-87
2021/12/10 11:24:29;;;;;;;;;;;4.10;99.90;;;;;;5018635;28;20273;-87
2021/12/10 11:26:59;;;;;;;;;;;4.20;99.90;;;;;;5019070;28;20028;-88
2021/12/10 11:29:28;;;;;;;;;;;4.20;99.90;;;;;;5018354;28;19928;-87
2021/12/10 11:32:02;;;;;;;;;;;4.20;99.90;;;;;;5035399;28;19951;-88
2021/12/10 11:34:38;;;;;;;;;;;4.30;99.90;;;;;;5002899;28;19925;-89
2021/12/10 11:37:08;;;;;;;;;;;4.30;99.90;;;;;;5018133;28;20008;-86
2021/12/10 11:39:43;;;;;;;;;;;4.30;99.90;;;;;;5018834;28;19929;-87
2021/12/10 11:42:27;;;;;;;;;;;4.30;99.90;;;;;;5018414;28;19926;-87
2021/12/10 11:45:42;;;;;;;;;;;4.30;99.90;;;;;;5018970;28;19925;-87
2021/12/10 11:47:45;;;;;;;;;;;4.40;99.90;;;;;;5007916;28;20011;-87
2021/12/10 11:50:16;;;;;;;;;;;4.30;99.90;;;;;;5001963;28;19929;-91
2021/12/10 11:52:42;;;;;;;;;;;4.40;99.90;;;;;;5018554;28;19924;-86
2021/12/10 11:55:10;;;;;;;;;;;4.30;99.90;;;;;;5002014;28;19925;-86
2021/12/10 11:57:39;;;;;;;;;;;4.40;99.90;;;;;;5018676;28;19928;-87
2021/12/10 12:00:11;;;;;;;;;;;4.40;99.90;;;;;;5018155;28;19933;-87
2021/12/10 12:02:45;;;;;;;;;;;4.40;99.90;;;;;;5035508;28;19924;-86
2021/12/10 12:05:14;;;;;;;;;;;4.40;99.90;;;;;;5054499;28;19928;-87
2021/12/10 12:07:43;;;;;;;;;;;4.40;99.90;;;;;;5038024;28;19924;-88
2021/12/10 12:10:12;;;;;;;;;;;4.40;99.90;;;;;;5038165;28;20293;-87
2021/12/10 12:12:45;;;;;;;;;;;4.40;99.90;;;;;;5038076;28;19932;-87
2021/12/10 12:15:13;;;;;;;;;;;4.40;99.90;;;;;;5021726;28;19982;-87
2021/12/10 12:17:48;;;;;;;;;;;4.40;99.90;;;;;;5038075;28;20003;-87
2021/12/10 12:20:33;;;;;;;;;;;4.30;99.90;;;;;;5053981;28;19955;-86
2021/12/10 12:26:25;;;;;;;;;;;4.30;99.90;;;;;;4993440;28;19932;-87
2021/12/10 12:28:55;;;;;;;;;;;4.30;99.90;;;;;;4977547;28;19948;-87
2021/12/10 12:31:22;;;;;;;;;;;4.40;99.90;;;;;;5023425;28;19925;-86
2021/12/10 12:33:57;;;;;;;;;;;4.40;99.90;;;;;;5025045;28;19924;-87
2021/12/10 12:36:28;;;;;;;;;;;4.40;99.90;;;;;;5024618;28;19925;-87
2021/12/10 12:38:53;;;;;;;;;;;4.40;99.90;;;;;;5025139;28;19935;-87
2021/12/10 12:41:26;;;;;;;;;;;4.40;99.90;;;;;;5041193;28;19929;-87
2021/12/10 12:44:10;;;;;;;;;;;4.40;99.90;;;;;;5024463;28;19925;-87
2021/12/10 12:46:54;;;;;;;;;;;4.40;99.90;;;;;;5041186;28;19924;-87
2021/12/10 12:49:22;;;;;;;;;;;4.40;99.90;;;;;;5040974;28;19924;-87
2021/12/10 12:52:03;;;;;;;;;;;4.40;99.90;;;;;;5025311;28;19928;-88
2021/12/10 12:54:32;;;;;;;;;;;4.40;99.90;;;;;;5025056;28;19929;-88
2021/12/10 12:57:00;;;;;;;;;;;4.40;99.90;;;;;;5041665;28;19931;-87
2021/12/10 12:59:26;;;;;;;;;;;4.40;99.90;;;;;;5041096;28;19932;-87
2021/12/10 13:01:56;;;;;;;;;;;4.50;99.90;;;;;;5024442;28;19924;-87
2021/12/10 13:04:26;;;;;;;;;;;4.50;99.90;;;;;;5037043;28;19925;-87
2021/12/10 13:06:55;;;;;;;;;;;4.50;99.90;;;;;;5005228;28;19978;-87
2021/12/10 13:09:39;;;;;;;;;;;4.40;99.90;;;;;;5004302;28;19970;-87
2021/12/10 13:12:12;;;;;;;;;;;4.40;99.90;;;;;;5006941;28;20334;-87
2021/12/10 13:14:48;;;;;;;;;;;4.40;99.90;;;;;;5006501;28;19977;-86
2021/12/10 13:17:16;;;;;;;;;;;4.40;99.90;;;;;;5020974;28;19928;-87
2021/12/10 13:19:44;;;;;;;;;;;4.40;99.90;;;;;;5019680;28;19924;-86
2021/12/10 13:22:20;;;;;;;;;;;4.30;99.90;;;;;;5003454;28;19974;-86
2021/12/10 13:25:00;;;;;;;;;;;4.30;99.90;;;;;;5018666;28;19925;-91
2021/12/10 13:27:28;;;;;;;;;;;4.30;99.90;;;;;;5004223;28;19939;-87
2021/12/10 13:29:54;;;;;;;;;;;4.30;99.90;;;;;;5019909;28;19975;-87
2021/12/10 13:32:20;;;;;;;;;;;4.30;99.90;;;;;;5045089;28;19965;-87
2021/12/10 13:34:53;;;;;;;;;;;4.20;99.90;;;;;;5002105;28;19928;-87
2021/12/10 13:37:18;;;;;;;;;;;4.30;99.90;;;;;;5019513;28;19925;-87
2021/12/10 13:39:54;;;;;;;;;;;4.20;99.90;;;;;;5023554;28;20321;-86
2021/12/10 13:42:22;;;;;;;;;;;4.20;99.90;;;;;;5034313;28;19932;-88
2021/12/10 13:44:52;;;;;;;;;;;4.20;99.90;;;;;;5002859;28;20272;-87
2021/12/10 13:47:27;;;;;;;;;;;4.10;99.90;;;;;;5002914;28;19998;-87
2021/12/10 13:49:55;;;;;;;;;;;4.10;99.90;;;;;;4992844;28;19932;-86
2021/12/10 13:52:40;;;;;;;;;;;4.00;99.90;;;;;;5025353;28;20019;-86
2021/12/10 13:55:12;;;;;;;;;;;4.00;99.90;;;;;;5036388;28;19925;-86
2021/12/10 13:57:40;;;;;;;;;;;4.00;99.90;;;;;;5002873;28;19925;-86
2021/12/10 14:00:08;;;;;;;;;;;4.00;99.90;;;;;;5002738;28;19986;-86
2021/12/10 14:02:38;;;;;;;;;;;4.00;99.90;;;;;;5022946;28;19929;-86
2021/12/10 14:05:38;;;;;;;;;;;3.90;99.90;;;;;;5034387;28;20331;-86
2021/12/10 14:08:11;;;;;;;;;;;3.90;99.90;;;;;;5036140;28;19928;-87
2021/12/10 14:10:40;;;;;;;;;;;3.80;99.90;;;;;;5037245;28;19932;-86
2021/12/10 14:13:06;;;;;;;;;;;3.80;99.90;;;;;;5029918;28;19929;-86
2021/12/10 14:15:43;;;;;;;;;;;3.80;99.90;;;;;;5031839;28;19931;-86
2021/12/10 14:18:14;;;;;;;;;;;3.70;99.90;;;;;;5049431;28;19978;-86
2021/12/10 14:20:47;;;;;;;;;;;3.60;99.90;;;;;;5037225;28;19925;-87
2021/12/10 14:23:21;;;;;;;;;;;3.60;99.90;;;;;;5023175;28;19925;-86
2021/12/10 14:25:59;;;;;;;;;;;3.50;99.90;;;;;;5024228;28;19925;-87
2021/12/10 14:28:28;;;;;;;;;;;3.50;99.90;;;;;;5036882;28;19924;-89
2021/12/10 14:31:12;;;;;;;;;;;3.50;99.90;;;;;;5055926;28;19929;-88
2021/12/10 14:33:43;;;;;;;;;;;3.40;99.90;;;;;;5023663;28;19924;-87
2021/12/10 14:36:09;;;;;;;;;;;3.40;99.90;;;;;;5023237;28;20021;-87
2021/12/10 14:38:53;;;;;;;;;;;;;;;;;;;;;
2021/12/10 14:41:28;;;;;;;;;;;3.30;99.90;;;;;;5056442;28;19925;-89
2021/12/10 14:44:09;;;;;;;;;;;3.20;99.90;;;;;;5022443;28;19928;-88
2021/12/10 14:46:48;;;;;;;;;;;;;;;;;;;;;
2021/12/10 14:49:36;;;;;;;;;;;3.10;99.90;;;;;;5041044;28;20292;-87
2021/12/10 14:52:16;;;;;;;;;;;3.10;99.90;;;;;;5039322;28;19924;-90
2021/12/10 14:55:03;;;;;;;;;;;;;;;;;;;;;
2021/12/10 14:57:47;;;;;;;;;;;2.90;99.90;;;;;;5039231;28;19924;-87
2021/12/10 15:00:42;;;;;;;;;;;2.80;99.90;;;;;;5040108;28;20011;-87
2021/12/10 15:03:20;;;;;;;;;;;2.70;99.90;;;;;;5037706;28;19931;-87
2021/12/10 15:05:48;;;;;;;;;;;2.60;99.90;;;;;;5022302;28;20368;-88
2021/12/10 15:08:51;;;;;;;;;;;2.60;99.90;;;;;;5022270;28;19934;-87
2021/12/10 15:11:33;;;;;;;;;;;2.50;99.90;;;;;;5040923;28;20037;-88
2021/12/10 15:14:11;;;;;;;;;;;2.40;99.90;;;;;;5038836;28;19924;-88
2021/12/10 15:16:48;;;;;;;;;;;;;;;;;;;;;
2021/12/10 15:19:25;;;;;;;;;;;2.20;99.90;;;;;;5040645;28;20023;-89
2021/12/10 15:22:02;;;;;;;;;;;2.20;99.90;;;;;;5039118;28;19932;-89
2021/12/10 15:24:37;;;;;;;;;;;2.10;99.90;;;;;;5024089;28;19925;-89
2021/12/10 15:27:52;;;;;;;;;;;2.00;99.90;;;;;;5042447;28;22244;-90
2021/12/10 15:30:53;;;;;;;;;;;;;;;;;;;;;
2021/12/10 15:33:27;;;;;;;;;;;1.90;99.90;;;;;;5055471;28;20019;-90
2021/12/10 15:36:19;;;;;;;;;;;1.80;99.90;;;;;;5022632;28;19928;-89
2021/12/10 15:38:59;;;;;;;;;;;;;;;;;;;;;
2021/12/10 15:41:52;;;;;;;;;;;;;;;;;;;;;
2021/12/10 15:44:41;;;;;;;;;;;1.60;99.90;;;;;;5040722;28;20283;-89
2021/12/10 15:47:16;;;;;;;;;;;1.50;99.90;;;;;;5039584;28;20028;-89
2021/12/10 15:50:02;;;;;;;;;;;;;;;;;;;;;
2021/12/10 15:52:41;;;;;;;;;;;;;;;;;;;;;
2021/12/10 15:55:35;;;;;;;;;;;;;;;;;;;;;
2021/12/10 15:58:31;;;;;;;;;;;1.30;99.90;;;;;;5039951;28;20007;-87
2021/12/10 16:01:01;;;;;;;;;;;1.20;99.90;;;;;;5025510;28;20019;-88
2021/12/10 16:06:35;;;;;;;;;;;1.20;99.90;;;;;;5056700;28;19931;-87
2021/12/10 16:09:05;;;;;;;;;;;1.10;99.90;;;;;;5025644;28;19974;-88
2021/12/10 16:11:33;;;;;;;;;;;1.10;99.90;;;;;;5026525;28;19925;-88
2021/12/10 16:14:08;;;;;;;;;;;1.00;99.90;;;;;;5025619;28;20289;-88
2021/12/10 16:16:48;;;;;;;;;;;1.00;99.90;;;;;;5026998;28;19932;-88
2021/12/10 16:19:15;;;;;;;;;;;0.90;99.90;;;;;;5027001;28;19951;-87
2021/12/10 16:22:00;;;;;;;;;;;;;;;;;;;;;
2021/12/10 16:24:45;;;;;;;;;;;0.90;99.90;;;;;;5044589;28;19928;-87
2021/12/10 16:27:16;;;;;;;;;;;0.80;99.90;;;;;;5025313;28;19924;-87
2021/12/10 16:29:44;;;;;;;;;;;0.90;99.90;;;;;;5041896;28;20022;-88
2021/12/10 16:32:12;;;;;;;;;;;0.80;99.90;;;;;;5041848;28;19925;-87
2021/12/10 16:34:47;;;;;;;;;;;0.90;99.90;;;;;;5041524;28;19972;-88
2021/12/10 16:37:18;;;;;;;;;;;0.80;99.90;;;;;;5026776;28;19990;-88
2021/12/10 16:39:45;;;;;;;;;;;0.90;99.90;;;;;;5025128;28;19936;-88
2021/12/10 16:44:59;;;;;;;;;;;0.90;99.90;;;;;;5033664;28;20355;-89
2021/12/10 16:47:27;;;;;;;;;;;0.80;99.90;;;;;;5022772;28;19980;-90
2021/12/10 16:49:56;;;;;;;;;;;0.80;99.90;;;;;;5019536;28;19935;-88